Terminal Aerodrome Forecast
Issued by NWS Wilmington, OH

Home | Current Version | Previous Version | Text Only | Print | Product List | Glossary On
Versions: 1 2 3 4 5 6 7 8 9 10 11 12 13 14 15 16 17 18 19 20 21 22 23 24 25 26 27
000
FTUS41 KILN 012300
TAFCMH
TAF
KCMH 012320Z 0200/0224 17012KT 4SM -RA BR OVC006
      TEMPO 0200/0204 1SM RA BR OVC004
     FM020400 22008KT 2SM BR VCSH OVC004
     FM020800 25012G20KT P6SM VCSH OVC012
     FM021000 32014G26KT P6SM OVC015
      TEMPO 0210/0213 5SM -SHSN
     FM021500 32012G18KT P6SM BKN025
     FM022000 31012KT P6SM SCT025=

USA.gov is the U.S. government's official web portal to all federal, state and local government web resources and services.